Time;durP1;ratioP1;P1;durP2;ratioP2;P2;SDS_P1;SDS_P2;PMS_P1;PMS_P2;Temp;Humidity;BMP_temperature;BMP_pressure;BME280_temperature;BME280_humidity;BME280_pressure;Samples;Min_cycle;Max_cycle;Signal;HPM_P1;HPM_P2
2022/07/05 00:00:51;0.00;0.00;0.62;0.00;0.00;0.62;1.90;1.30;;;29.20;26.20;;;;;;2250899;61;20551;-59
2022/07/05 00:03:36;0.00;0.00;0.62;0.00;0.00;0.62;4.57;1.57;;;29.20;26.20;;;;;;2251719;61;20402;-59
2022/07/05 00:06:22;0.00;0.00;0.62;0.00;0.00;0.62;2.33;1.37;;;29.20;26.20;;;;;;2250604;61;20919;-59
2022/07/05 00:09:07;0.00;0.00;0.62;0.00;0.00;0.62;2.97;1.40;;;29.20;26.20;;;;;;2251713;61;20363;-59
2022/07/05 00:11:52;0.00;0.00;0.62;0.00;0.00;0.62;3.57;1.40;;;29.20;26.20;;;;;;2251592;61;20358;-59
2022/07/05 00:14:36;0.00;0.00;0.62;0.00;0.00;0.62;1.63;1.50;;;29.20;26.20;;;;;;2250753;61;20790;-57
2022/07/05 00:17:22;0.00;0.00;0.62;0.00;0.00;0.62;2.17;1.50;;;29.20;26.20;;;;;;2252479;61;20499;-59
2022/07/05 00:20:08;0.00;0.00;0.62;0.00;0.00;0.62;1.80;1.23;;;29.20;26.20;;;;;;2251961;61;20390;-60
2022/07/05 00:22:55;0.00;0.00;0.62;0.00;0.00;0.62;1.80;1.50;;;29.20;26.20;;;;;;2251715;61;20366;-54
2022/07/05 00:25:40;0.00;0.00;0.62;0.00;0.00;0.62;2.13;1.30;;;29.20;26.20;;;;;;2249884;61;20369;-57
2022/07/05 00:28:25;0.00;0.00;0.62;0.00;0.00;0.62;2.43;1.40;;;29.20;26.20;;;;;;2249093;61;20402;-57
2022/07/05 00:31:10;0.00;0.00;0.62;0.00;0.00;0.62;2.17;1.20;;;29.20;26.20;;;;;;2250643;61;20386;-53
2022/07/05 00:33:55;0.00;0.00;0.62;0.00;0.00;0.62;3.10;1.60;;;29.20;26.20;;;;;;2250910;61;20406;-52
2022/07/05 00:36:39;0.00;0.00;0.62;0.00;0.00;0.62;2.40;1.60;;;29.20;26.20;;;;;;2250030;61;20441;-53
2022/07/05 00:39:26;0.00;0.00;0.62;0.00;0.00;0.62;3.13;1.40;;;29.30;26.40;;;;;;2251716;61;20426;-52
2022/07/05 00:42:11;0.00;0.00;0.62;0.00;0.00;0.62;2.80;1.57;;;29.20;26.30;;;;;;2251007;61;20487;-52
2022/07/05 00:44:56;0.00;0.00;0.62;0.00;0.00;0.62;2.33;1.30;;;29.20;26.30;;;;;;2250841;61;20439;-52
2022/07/05 00:47:41;0.00;0.00;0.62;0.00;0.00;0.62;2.50;1.73;;;29.20;26.30;;;;;;2252436;61;20887;-54
2022/07/05 00:50:26;0.00;0.00;0.62;0.00;0.00;0.62;2.27;1.60;;;29.20;26.30;;;;;;2251412;61;20406;-55
2022/07/05 00:53:11;0.00;0.00;0.62;0.00;0.00;0.62;1.87;1.43;;;29.20;26.30;;;;;;2252410;61;20445;-52
2022/07/05 00:55:58;0.00;0.00;0.62;0.00;0.00;0.62;1.50;1.23;;;29.20;26.30;;;;;;2253076;61;20475;-55
2022/07/05 00:58:43;0.00;0.00;0.62;0.00;0.00;0.62;1.87;1.43;;;29.20;26.30;;;;;;2252571;61;20787;-54
2022/07/05 01:01:28;0.00;0.00;0.62;0.00;0.00;0.62;2.20;1.50;;;29.20;26.30;;;;;;2253438;61;20422;-51
2022/07/05 01:04:13;0.00;0.00;0.62;0.00;0.00;0.62;1.90;1.50;;;29.20;26.30;;;;;;2253309;61;20397;-53
2022/07/05 01:06:58;0.00;0.00;0.62;0.00;0.00;0.62;1.70;1.10;;;29.20;26.30;;;;;;2252611;61;20836;-52
2022/07/05 01:09:44;0.00;0.00;0.62;0.00;0.00;0.62;2.17;1.40;;;29.20;26.30;;;;;;2253058;61;20383;-52
2022/07/05 01:12:30;0.00;0.00;0.62;0.00;0.00;0.62;2.93;1.80;;;29.30;26.40;;;;;;2251686;61;20879;-52
2022/07/05 01:15:16;0.00;0.00;0.62;0.00;0.00;0.62;2.20;1.53;;;29.30;26.40;;;;;;2251420;61;21015;-52
2022/07/05 01:18:01;0.00;0.00;0.62;0.00;0.00;0.62;4.30;1.33;;;29.20;26.40;;;;;;2252296;61;20821;-53
2022/07/05 01:20:48;0.00;0.00;0.62;0.00;0.00;0.62;2.53;1.57;;;29.20;26.40;;;;;;2250592;61;20930;-55
2022/07/05 01:23:34;0.00;0.00;0.62;0.00;0.00;0.62;4.77;1.73;;;29.10;26.40;;;;;;2251877;61;20357;-53
2022/07/05 01:26:19;0.00;0.00;0.62;0.00;0.00;0.62;3.10;1.63;;;29.10;26.50;;;;;;2252074;61;20501;-52
2022/07/05 01:29:05;0.00;0.00;0.62;0.00;0.00;0.62;2.73;1.90;;;29.10;26.60;;;;;;2250936;61;20376;-56
2022/07/05 01:31:50;0.00;0.00;0.62;0.00;0.00;0.62;4.60;2.50;;;29.10;26.60;;;;;;2252290;61;20816;-55
2022/07/05 01:34:38;0.00;0.00;0.62;0.00;0.00;0.62;3.30;2.37;;;29.00;26.60;;;;;;2251189;61;20358;-55
2022/07/05 01:37:23;0.00;0.00;0.62;0.00;0.00;0.62;2.30;1.90;;;28.90;26.60;;;;;;2251459;61;20499;-55
2022/07/05 01:40:10;0.00;0.00;0.62;0.00;0.00;0.62;4.23;2.10;;;28.90;26.70;;;;;;2251994;61;20973;-53
2022/07/05 01:42:56;0.00;0.00;0.62;0.00;0.00;0.62;2.63;2.00;;;28.80;26.80;;;;;;2251119;61;20956;-55
2022/07/05 01:45:41;0.00;0.00;0.62;0.00;0.00;0.62;2.43;1.87;;;28.80;26.80;;;;;;2251955;61;20358;-54
2022/07/05 01:48:28;0.00;0.00;0.62;0.00;0.00;0.62;2.23;1.83;;;28.70;26.80;;;;;;2252070;61;20367;-52
2022/07/05 01:51:20;0.00;0.00;0.62;0.00;0.00;0.62;2.50;1.50;;;28.80;26.80;;;;;;2251021;61;20405;-51
2022/07/05 01:54:05;0.00;0.00;0.62;0.00;0.00;0.62;2.03;1.70;;;28.70;26.70;;;;;;2251850;61;20367;-51
2022/07/05 01:56:52;0.00;0.00;0.62;0.00;0.00;0.62;3.20;1.70;;;28.70;26.70;;;;;;2251106;61;20391;-50
2022/07/05 01:59:37;0.00;0.00;0.62;0.00;0.00;0.62;2.23;1.50;;;28.70;26.70;;;;;;2251800;61;20387;-53
2022/07/05 02:02:22;0.00;0.00;0.62;0.00;0.00;0.62;6.07;2.10;;;28.70;26.80;;;;;;2251468;61;20390;-52
2022/07/05 02:05:07;0.00;0.00;0.62;0.00;0.00;0.62;1.60;1.40;;;28.70;26.80;;;;;;2250849;61;20433;-56
2022/07/05 02:07:52;0.00;0.00;0.62;0.00;0.00;0.62;2.20;1.73;;;28.70;26.80;;;;;;2252003;61;20394;-53
2022/07/05 02:10:37;0.00;0.00;0.62;0.00;0.00;0.62;3.90;2.00;;;28.70;26.80;;;;;;2252317;61;20382;-53
2022/07/05 02:13:24;0.00;0.00;0.62;0.00;0.00;0.62;3.73;1.90;;;28.70;26.80;;;;;;2250986;61;20359;-55
2022/07/05 02:16:10;0.00;0.00;0.62;0.00;0.00;0.62;3.00;1.80;;;28.70;26.80;;;;;;2249530;61;20426;-52
2022/07/05 02:18:55;0.00;0.00;0.62;0.00;0.00;0.62;3.10;1.87;;;28.70;26.80;;;;;;2251009;61;21093;-55
2022/07/05 02:21:42;0.00;0.00;0.62;0.00;0.00;0.62;1.90;1.40;;;28.70;26.80;;;;;;2251394;61;20366;-54
2022/07/05 02:24:31;0.00;0.00;0.62;0.00;0.00;0.62;3.10;1.47;;;28.70;26.70;;;;;;2251580;61;20402;-52
2022/07/05 02:27:28;0.00;0.00;0.62;0.00;0.00;0.62;2.40;1.30;;;28.70;26.70;;;;;;2248086;61;20370;-51
2022/07/05 02:30:15;0.00;0.00;0.62;0.00;0.00;0.62;2.10;1.30;;;28.70;26.70;;;;;;2251653;61;21167;-52
2022/07/05 02:33:01;0.00;0.00;0.62;0.00;0.00;0.62;2.53;1.80;;;28.70;26.70;;;;;;2251955;61;20395;-54
2022/07/05 02:35:46;0.00;0.00;0.62;0.00;0.00;0.62;3.47;1.90;;;28.70;26.80;;;;;;2250129;61;20371;-52
2022/07/05 02:38:31;0.00;0.00;0.62;0.00;0.00;0.62;1.90;1.43;;;28.70;26.80;;;;;;2251771;61;20362;-52
2022/07/05 02:41:16;0.00;0.00;0.62;0.00;0.00;0.62;2.30;1.90;;;28.60;26.80;;;;;;2250956;61;20463;-54
2022/07/05 02:44:05;0.00;0.00;0.62;0.00;0.00;0.62;3.40;1.70;;;28.60;26.80;;;;;;2251003;61;20355;-53
2022/07/05 02:46:51;0.00;0.00;0.62;0.00;0.00;0.62;3.80;1.97;;;28.60;26.80;;;;;;2251595;61;20446;-53
2022/07/05 02:49:36;0.00;0.00;0.62;0.00;0.00;0.62;4.60;2.10;;;28.60;26.90;;;;;;2250311;61;20430;-52
2022/07/05 02:52:23;0.00;0.00;0.62;0.00;0.00;0.62;3.70;1.97;;;28.50;26.80;;;;;;2251668;61;20342;-52
2022/07/05 02:55:09;0.00;0.00;0.62;0.00;0.00;0.62;2.57;1.90;;;28.50;26.90;;;;;;2251011;61;20445;-52
2022/07/05 02:57:54;0.00;0.00;0.62;0.00;0.00;0.62;2.90;1.87;;;28.40;26.90;;;;;;2250845;61;20363;-51
2022/07/05 03:00:39;0.00;0.00;0.62;0.00;0.00;0.62;2.77;1.50;;;28.40;27.00;;;;;;2251508;61;20915;-52
2022/07/05 03:03:27;0.00;0.00;0.62;0.00;0.00;0.62;3.73;2.03;;;28.30;27.00;;;;;;2250632;61;21087;-50
2022/07/05 03:06:12;0.00;0.00;0.62;0.00;0.00;0.62;5.83;2.33;;;28.20;27.10;;;;;;2251229;61;20399;-53
2022/07/05 03:08:58;0.00;0.00;0.62;0.00;0.00;0.62;2.63;1.63;;;28.20;27.10;;;;;;2251449;61;20382;-51
2022/07/05 03:11:42;0.00;0.00;0.62;0.00;0.00;0.62;4.87;1.80;;;28.10;27.20;;;;;;2250335;61;20367;-54
2022/07/05 03:14:28;0.00;0.00;0.62;0.00;0.00;0.62;2.33;1.63;;;28.10;27.20;;;;;;2251207;61;20375;-51
2022/07/05 03:17:13;0.00;0.00;0.62;0.00;0.00;0.62;3.00;1.43;;;28.00;27.30;;;;;;2251087;61;20414;-54
2022/07/05 03:20:00;0.00;0.00;0.62;0.00;0.00;0.62;3.03;2.20;;;28.00;27.40;;;;;;2250666;61;20475;-51
2022/07/05 03:22:46;0.00;0.00;0.62;0.00;0.00;0.62;2.73;1.97;;;27.90;27.40;;;;;;2251669;61;20363;-53
2022/07/05 03:25:32;0.00;0.00;0.62;0.00;0.00;0.62;3.07;1.90;;;27.90;27.40;;;;;;2250651;61;20422;-51
2022/07/05 03:28:20;0.00;0.00;0.62;0.00;0.00;0.62;3.07;1.90;;;27.90;27.50;;;;;;2251368;61;20382;-52
2022/07/05 03:31:07;0.00;0.00;0.62;0.00;0.00;0.62;3.90;2.30;;;27.80;27.50;;;;;;2251287;61;20930;-51
2022/07/05 03:33:57;0.00;0.00;0.62;0.00;0.00;0.62;3.30;2.60;;;27.80;27.60;;;;;;2249897;61;20390;-52
2022/07/05 03:36:43;0.00;0.00;0.62;0.00;0.00;0.62;3.10;2.40;;;27.70;27.70;;;;;;2251283;61;20386;-51
2022/07/05 03:39:33;0.00;0.00;0.62;0.00;0.00;0.62;4.23;2.50;;;27.60;27.70;;;;;;2251109;61;20984;-54
2022/07/05 03:42:18;0.00;0.00;0.62;0.00;0.00;0.62;3.40;2.10;;;27.50;27.70;;;;;;2250129;61;20366;-51
2022/07/05 03:45:04;0.00;0.00;0.62;0.00;0.00;0.62;3.43;2.50;;;27.50;27.80;;;;;;2251173;61;20355;-53
2022/07/05 03:47:49;0.00;0.00;0.62;0.00;0.00;0.62;2.30;1.90;;;27.50;28.00;;;;;;2250801;61;20358;-52
2022/07/05 03:50:34;0.00;0.00;0.62;0.00;0.00;0.62;2.77;2.30;;;27.40;28.00;;;;;;2250971;61;20498;-55
2022/07/05 03:53:21;0.00;0.00;0.62;0.00;0.00;0.62;2.33;1.97;;;27.30;28.10;;;;;;2251243;61;20378;-56
2022/07/05 03:56:06;0.00;0.00;0.62;0.00;0.00;0.62;2.77;2.10;;;27.30;28.20;;;;;;2250345;61;21038;-55
2022/07/05 03:58:52;0.00;0.00;0.62;0.00;0.00;0.62;2.60;1.70;;;27.20;28.20;;;;;;2251362;61;20370;-55
2022/07/05 04:01:38;0.00;0.00;0.62;0.00;0.00;0.62;2.77;2.10;;;27.20;28.20;;;;;;2251136;61;20463;-52
2022/07/05 04:04:24;0.00;0.00;0.62;0.00;0.00;0.62;3.40;2.20;;;27.20;28.30;;;;;;2249968;61;20358;-56
2022/07/05 04:07:09;0.00;0.00;0.62;0.00;0.00;0.62;3.87;1.70;;;27.20;28.40;;;;;;2251306;61;20512;-55
2022/07/05 04:09:56;0.00;0.00;0.62;0.00;0.00;0.62;2.23;2.03;;;27.20;28.50;;;;;;2247976;61;20382;-53
2022/07/05 04:12:41;0.00;0.00;0.62;0.00;0.00;0.62;2.10;1.83;;;27.10;28.40;;;;;;2250903;61;20418;-51
2022/07/05 04:15:26;0.00;0.00;0.62;0.00;0.00;0.62;3.40;2.10;;;27.10;28.40;;;;;;2251142;61;20382;-54
2022/07/05 04:18:14;0.00;0.00;0.62;0.00;0.00;0.62;3.30;2.00;;;27.00;28.40;;;;;;2250265;61;20363;-54
2022/07/05 04:21:01;0.00;0.00;0.62;0.00;0.00;0.62;2.70;2.20;;;27.00;28.50;;;;;;2250950;61;20382;-53
2022/07/05 04:23:46;0.00;0.00;0.62;0.00;0.00;0.62;2.97;1.83;;;27.00;28.50;;;;;;2251042;61;20363;-52
2022/07/05 04:26:32;0.00;0.00;0.62;0.00;0.00;0.62;2.90;1.73;;;27.00;28.60;;;;;;2250064;61;20911;-51
2022/07/05 04:29:17;0.00;0.00;0.62;0.00;0.00;0.62;2.80;1.80;;;26.90;28.60;;;;;;2251333;61;20875;-51
2022/07/05 04:32:04;0.00;0.00;0.62;0.00;0.00;0.62;4.00;1.90;;;26.90;28.60;;;;;;2250736;61;20362;-52
2022/07/05 04:34:49;0.00;0.00;0.62;0.00;0.00;0.62;3.50;2.17;;;26.90;28.60;;;;;;2250701;61;20887;-51
2022/07/05 04:37:34;0.00;0.00;0.62;0.00;0.00;0.62;3.57;2.10;;;26.90;28.70;;;;;;2251350;61;20398;-51
2022/07/05 04:40:19;0.00;0.00;0.62;0.00;0.00;0.62;5.40;1.90;;;26.80;28.70;;;;;;2250306;61;20942;-51
2022/07/05 04:43:05;0.00;0.00;0.62;0.00;0.00;0.62;3.33;2.10;;;26.80;28.70;;;;;;2250794;61;20367;-52
2022/07/05 04:45:50;0.00;0.00;0.62;0.00;0.00;0.62;2.50;1.67;;;26.80;28.80;;;;;;2251560;61;20362;-52
2022/07/05 04:48:35;0.00;0.00;0.62;0.00;0.00;0.62;2.43;2.00;;;26.70;28.80;;;;;;2249884;61;20780;-51
2022/07/05 04:51:20;0.00;0.00;0.62;0.00;0.00;0.62;4.30;1.77;;;26.70;28.80;;;;;;2251309;61;20470;-51
2022/07/05 04:54:06;0.00;0.00;0.62;0.00;0.00;0.62;3.47;2.40;;;26.70;28.80;;;;;;2250456;61;20895;-54
2022/07/05 04:56:50;0.00;0.00;0.62;0.00;0.00;0.62;4.63;1.77;;;26.60;28.80;;;;;;2250739;61;20405;-52
2022/07/05 04:59:36;0.00;0.00;0.62;0.00;0.00;0.62;3.37;1.93;;;26.60;28.90;;;;;;2251630;61;20386;-53
2022/07/05 05:02:21;0.00;0.00;0.62;0.00;0.00;0.62;3.50;2.00;;;26.50;28.80;;;;;;2250073;61;20366;-51
2022/07/05 05:05:07;0.00;0.00;0.62;0.00;0.00;0.62;2.30;1.80;;;26.50;28.90;;;;;;2251104;61;20362;-52
2022/07/05 05:07:52;0.00;0.00;0.62;0.00;0.00;0.62;2.67;1.93;;;26.50;28.90;;;;;;2251575;61;20449;-51
2022/07/05 05:10:36;0.00;0.00;0.62;0.00;0.00;0.62;2.43;1.60;;;26.50;29.00;;;;;;2250315;61;20467;-52
2022/07/05 05:13:21;0.00;0.00;0.62;0.00;0.00;0.62;2.17;1.87;;;26.40;29.00;;;;;;2251104;61;20501;-51
2022/07/05 05:16:07;0.00;0.00;0.62;0.00;0.00;0.62;3.77;1.87;;;26.40;29.10;;;;;;2250777;61;20375;-51
2022/07/05 05:18:52;0.00;0.00;0.62;0.00;0.00;0.62;3.77;2.10;;;26.40;29.10;;;;;;2250888;61;20414;-50
2022/07/05 05:21:37;0.00;0.00;0.62;0.00;0.00;0.62;2.60;2.00;;;26.30;29.20;;;;;;2251651;61;20451;-51
2022/07/05 05:24:22;0.00;0.00;0.62;0.00;0.00;0.62;6.20;1.73;;;26.30;29.20;;;;;;2250026;61;20390;-52
2022/07/05 05:27:06;0.00;0.00;0.62;0.00;0.00;0.62;3.13;2.07;;;26.40;29.30;;;;;;2251493;61;20355;-53
2022/07/05 05:29:51;0.00;0.00;0.62;0.00;0.00;0.62;4.50;2.37;;;26.30;29.40;;;;;;2251594;61;20482;-54
2022/07/05 05:32:38;0.00;0.00;0.62;0.00;0.00;0.62;4.10;2.13;;;26.30;29.50;;;;;;2250901;61;20363;-53
2022/07/05 05:35:23;0.00;0.00;0.62;0.00;0.00;0.62;3.57;2.20;;;26.30;29.50;;;;;;2252019;61;21005;-51
2022/07/05 05:38:08;0.00;0.00;0.62;0.00;0.00;0.62;5.47;2.43;;;26.30;29.50;;;;;;2251995;61;21160;-55
2022/07/05 05:40:53;0.00;0.00;0.62;0.00;0.00;0.62;3.20;2.33;;;26.30;29.60;;;;;;2250506;61;20510;-53
2022/07/05 05:43:38;0.00;0.00;0.62;0.00;0.00;0.62;3.13;2.50;;;26.30;29.70;;;;;;2251544;61;20406;-52
2022/07/05 05:46:22;0.00;0.00;0.62;0.00;0.00;0.62;3.73;2.67;;;26.30;29.80;;;;;;2251474;61;20498;-58
2022/07/05 05:49:08;0.00;0.00;0.62;0.00;0.00;0.62;3.60;2.50;;;26.30;29.90;;;;;;2251842;61;20371;-55
2022/07/05 05:51:53;0.00;0.00;0.62;0.00;0.00;0.62;3.77;2.20;;;26.20;29.90;;;;;;2252273;61;20409;-56
2022/07/05 05:54:39;0.00;0.00;0.62;0.00;0.00;0.62;4.53;2.57;;;26.20;30.00;;;;;;2250618;61;20358;-54
2022/07/05 05:57:23;0.00;0.00;0.62;0.00;0.00;0.62;3.40;2.50;;;26.20;30.00;;;;;;2252152;61;20474;-53
2022/07/05 06:00:10;0.00;0.00;0.62;0.00;0.00;0.62;4.07;2.33;;;26.20;30.00;;;;;;2251581;61;20483;-56
2022/07/05 06:02:58;0.00;0.00;0.62;0.00;0.00;0.62;3.37;2.30;;;26.20;30.10;;;;;;2250810;61;20407;-54
2022/07/05 06:05:44;0.00;0.00;0.62;0.00;0.00;0.62;2.77;2.10;;;26.20;30.20;;;;;;2252346;61;20486;-57
2022/07/05 06:08:29;0.00;0.00;0.62;0.00;0.00;0.62;3.07;2.23;;;26.20;30.20;;;;;;2251323;61;20776;-57
2022/07/05 06:11:15;0.00;0.00;0.62;0.00;0.00;0.62;3.47;1.93;;;26.20;30.20;;;;;;2251224;61;20379;-54
2022/07/05 06:13:59;0.00;0.00;0.62;0.00;0.00;0.62;4.30;2.00;;;26.20;30.20;;;;;;2251752;61;20367;-57
2022/07/05 06:16:44;0.00;0.00;0.62;0.00;0.00;0.62;5.20;2.80;;;26.20;30.20;;;;;;2250189;61;20422;-57
2022/07/05 06:19:29;0.00;0.00;0.62;0.00;0.00;0.62;3.10;1.87;;;26.20;30.10;;;;;;2251980;61;20923;-57
2022/07/05 06:22:16;0.00;0.00;0.62;0.00;0.00;0.62;5.40;1.80;;;26.20;30.20;;;;;;2251562;61;20359;-58
2022/07/05 06:25:01;0.00;0.00;0.62;0.00;0.00;0.62;5.43;1.90;;;26.30;30.30;;;;;;2250804;61;20429;-58
2022/07/05 06:27:48;0.00;0.00;0.62;0.00;0.00;0.62;3.30;2.23;;;26.30;30.20;;;;;;2252470;61;20394;-57
2022/07/05 06:30:36;0.00;0.00;0.62;0.00;0.00;0.62;8.60;2.00;;;26.30;30.20;;;;;;2251410;61;20390;-60
2022/07/05 06:33:22;0.00;0.00;0.62;0.00;0.00;0.62;3.10;1.60;;;26.30;30.20;;;;;;2247878;61;20901;-58
2022/07/05 06:36:07;0.00;0.00;0.62;0.00;0.00;0.62;3.50;1.77;;;26.40;30.10;;;;;;2246606;61;20390;-57
2022/07/05 06:38:54;0.00;0.00;0.62;0.00;0.00;0.62;2.83;1.77;;;26.40;30.00;;;;;;2244785;61;20828;-57
2022/07/05 06:41:38;0.00;0.00;0.62;0.00;0.00;0.62;6.27;2.43;;;26.40;29.90;;;;;;2247242;61;20940;-58
2022/07/05 06:44:24;0.00;0.00;0.62;0.00;0.00;0.62;4.90;1.40;;;26.40;29.80;;;;;;2246555;61;20786;-62
2022/07/05 06:47:09;0.00;0.00;0.62;0.00;0.00;0.62;5.80;1.60;;;26.40;29.80;;;;;;2246462;61;20499;-58
2022/07/05 06:49:54;0.00;0.00;0.62;0.00;0.00;0.62;2.37;1.40;;;26.50;29.80;;;;;;2247783;61;20434;-56
2022/07/05 06:52:41;0.00;0.00;0.62;0.00;0.00;0.62;1.87;1.40;;;26.50;29.80;;;;;;2244644;61;20367;-59
2022/07/05 06:55:28;0.00;0.00;0.62;0.00;0.00;0.62;2.50;1.37;;;26.50;29.70;;;;;;2249510;61;20467;-51
2022/07/05 06:58:13;0.00;0.00;0.62;0.00;0.00;0.62;2.40;1.37;;;26.50;30.00;;;;;;2251665;61;20371;-54
2022/07/05 07:00:58;0.00;0.00;0.62;0.00;0.00;0.62;7.67;1.47;;;26.60;29.30;;;;;;2480228;53;20908;-60
2022/07/05 07:03:42;0.00;0.00;0.62;0.00;0.00;0.62;3.10;1.30;;;26.60;29.20;;;;;;2247485;61;20363;-52
2022/07/05 07:06:28;0.00;0.00;0.62;0.00;0.00;0.62;2.53;1.43;;;26.60;28.90;;;;;;2247662;61;20363;-54
2022/07/05 07:09:20;0.00;0.00;0.62;0.00;0.00;0.62;2.70;1.23;;;26.60;28.70;;;;;;2246866;61;20360;-53
2022/07/05 07:12:07;0.00;0.00;0.62;0.00;0.00;0.62;2.00;1.07;;;26.60;28.50;;;;;;2248037;61;20384;-57
2022/07/05 07:14:53;0.00;0.00;0.62;0.00;0.00;0.62;2.43;1.50;;;26.70;28.50;;;;;;2247314;61;20368;-58
2022/07/05 07:17:38;0.00;0.00;0.62;0.00;0.00;0.62;3.93;1.50;;;26.60;28.50;;;;;;2246386;61;20367;-51
2022/07/05 07:20:23;0.00;0.00;0.62;0.00;0.00;0.62;2.00;1.47;;;26.60;28.50;;;;;;2248082;61;20387;-53
2022/07/05 07:23:08;0.00;0.00;0.62;0.00;0.00;0.62;2.93;1.30;;;26.70;28.50;;;;;;2246697;61;20412;-54
2022/07/05 07:25:52;0.00;0.00;0.62;0.00;0.00;0.62;1.90;1.30;;;26.60;28.50;;;;;;2247784;61;20916;-56
2022/07/05 07:28:39;0.00;0.00;0.62;0.00;0.00;0.62;2.33;1.77;;;26.70;28.60;;;;;;2247957;61;20769;-58
2022/07/05 07:31:25;0.00;0.00;0.62;0.00;0.00;0.62;1.80;1.30;;;26.70;28.50;;;;;;2246653;61;20407;-57
2022/07/05 07:34:10;0.00;0.00;0.62;0.00;0.00;0.62;2.13;1.37;;;26.70;28.50;;;;;;2248760;61;20360;-57
2022/07/05 07:36:56;0.00;0.00;0.62;0.00;0.00;0.62;3.80;1.90;;;26.80;28.40;;;;;;2248036;61;20936;-55
2022/07/05 07:39:41;0.00;0.00;0.62;0.00;0.00;0.62;3.50;1.90;;;26.80;28.30;;;;;;2246696;61;20430;-53
2022/07/05 07:42:27;0.00;0.00;0.62;0.00;0.00;0.62;3.33;1.73;;;26.80;28.20;;;;;;2248153;61;20464;-54
2022/07/05 07:45:14;0.00;0.00;0.62;0.00;0.00;0.62;2.00;1.43;;;26.80;28.10;;;;;;2246504;61;20360;-54
2022/07/05 07:47:59;0.00;0.00;0.62;0.00;0.00;0.62;2.23;1.60;;;26.80;27.90;;;;;;2247685;61;20371;-56
2022/07/05 07:50:44;0.00;0.00;0.62;0.00;0.00;0.62;2.23;1.50;;;26.80;27.80;;;;;;2250038;61;20446;-54
2022/07/05 07:53:28;0.00;0.00;0.62;0.00;0.00;0.62;1.90;1.60;;;26.80;27.70;;;;;;2250379;61;20503;-48
2022/07/05 07:56:13;0.00;0.00;0.62;0.00;0.00;0.62;2.03;1.43;;;26.80;27.50;;;;;;2251300;61;20843;-55
2022/07/05 07:58:58;0.00;0.00;0.62;0.00;0.00;0.62;1.40;1.07;;;26.80;27.40;;;;;;2252284;61;20453;-59
2022/07/05 08:01:45;0.00;0.00;0.62;0.00;0.00;0.62;2.00;1.40;;;26.80;27.40;;;;;;2251072;61;20844;-54
2022/07/05 08:04:30;0.00;0.00;0.62;0.00;0.00;0.62;3.10;1.40;;;26.80;27.30;;;;;;2251754;61;20386;-54
2022/07/05 08:07:15;0.00;0.00;0.62;0.00;0.00;0.62;3.03;1.23;;;26.80;27.30;;;;;;2250565;61;20362;-53
2022/07/05 08:10:00;0.00;0.00;0.62;0.00;0.00;0.62;1.93;1.23;;;26.80;27.10;;;;;;2251755;61;21129;-54
2022/07/05 08:12:45;0.00;0.00;0.62;0.00;0.00;0.62;5.30;1.60;;;26.80;27.10;;;;;;2248531;61;20417;-50
2022/07/05 08:15:30;0.00;0.00;0.62;0.00;0.00;0.62;1.97;1.40;;;26.90;27.20;;;;;;2250390;61;20445;-59
2022/07/05 08:21:31;0.00;0.00;0.62;0.00;0.00;0.62;1.40;1.10;;;26.90;26.90;;;;;;2251600;61;20391;-54
2022/07/05 08:24:19;0.00;0.00;0.62;0.00;0.00;0.62;2.37;1.30;;;26.90;26.70;;;;;;2251046;61;20431;-56
2022/07/05 08:27:05;0.00;0.00;0.62;0.00;0.00;0.62;1.50;0.93;;;26.90;26.40;;;;;;2251617;61;20378;-56
2022/07/05 08:29:50;0.00;0.00;0.62;0.00;0.00;0.62;2.00;1.30;;;26.90;26.20;;;;;;2250717;61;20465;-54
2022/07/05 08:32:35;0.00;0.00;0.62;0.00;0.00;0.62;1.70;0.97;;;26.90;26.10;;;;;;2251703;61;20413;-54
2022/07/05 08:35:21;0.00;0.00;0.62;0.00;0.00;0.62;1.87;1.30;;;26.90;26.00;;;;;;2251461;61;20455;-56
2022/07/05 08:38:06;0.00;0.00;0.62;0.00;0.00;0.62;1.80;1.27;;;26.90;26.00;;;;;;2250699;61;20811;-57
2022/07/05 08:40:55;0.00;0.00;0.62;0.00;0.00;0.62;1.87;1.00;;;26.90;25.90;;;;;;2251890;61;20951;-52
2022/07/05 08:43:42;0.00;0.00;0.62;0.00;0.00;0.62;2.57;1.10;;;26.90;25.80;;;;;;2251404;61;20899;-57
2022/07/05 08:46:31;0.00;0.00;0.62;0.00;0.00;0.62;6.70;1.50;;;26.90;25.50;;;;;;2251050;61;20414;-53
2022/07/05 08:49:21;0.00;0.00;0.62;0.00;0.00;0.62;2.43;1.30;;;26.90;26.00;;;;;;2252066;61;20788;-53
2022/07/05 08:52:11;0.00;0.00;0.62;0.00;0.00;0.62;2.80;1.30;;;26.90;25.50;;;;;;2250851;61;20363;-55
2022/07/05 08:54:57;0.00;0.00;0.62;0.00;0.00;0.62;2.13;1.20;;;26.90;25.60;;;;;;2251509;61;20379;-52
2022/07/05 08:57:42;0.00;0.00;0.62;0.00;0.00;0.62;2.20;1.70;;;26.90;25.50;;;;;;2251875;61;20367;-64
2022/07/05 09:00:28;0.00;0.00;0.62;0.00;0.00;0.62;1.90;1.30;;;26.90;25.50;;;;;;2250367;61;20414;-52
2022/07/05 09:03:14;0.00;0.00;0.62;0.00;0.00;0.62;1.93;1.10;;;26.90;25.50;;;;;;2252199;61;20738;-63
2022/07/05 09:06:01;0.00;0.00;0.62;0.00;0.00;0.62;2.53;1.40;;;26.90;25.40;;;;;;2252194;61;20362;-54
2022/07/05 09:08:50;0.00;0.00;0.62;0.00;0.00;0.62;1.80;1.30;;;26.90;25.40;;;;;;2251988;61;20455;-53
2022/07/05 09:11:37;0.00;0.00;0.62;0.00;0.00;0.62;3.27;1.47;;;26.90;25.30;;;;;;2252491;61;20463;-54
2022/07/05 09:14:25;0.00;0.00;0.62;0.00;0.00;0.62;1.70;1.30;;;26.90;25.10;;;;;;2251032;61;20806;-56
2022/07/05 09:17:11;0.00;0.00;0.62;0.00;0.00;0.62;1.90;1.10;;;26.90;25.20;;;;;;2252349;61;20845;-54
2022/07/05 09:20:12;0.00;0.00;0.62;0.00;0.00;0.62;3.73;1.40;;;26.90;25.30;;;;;;2251999;61;20382;-55
2022/07/05 09:22:57;0.00;0.00;0.62;0.00;0.00;0.62;2.10;1.60;;;26.90;25.10;;;;;;2247409;61;20392;-56
2022/07/05 09:25:43;0.00;0.00;0.62;0.00;0.00;0.62;1.53;1.20;;;26.90;25.10;;;;;;2248516;61;20367;-55
2022/07/05 09:28:28;0.00;0.00;0.62;0.00;0.00;0.62;1.50;1.10;;;26.90;25.20;;;;;;2247573;61;20383;-59
2022/07/05 09:31:27;0.00;0.00;0.62;0.00;0.00;0.62;1.80;1.27;;;26.90;25.20;;;;;;2247894;61;20383;-56
2022/07/05 09:34:13;0.00;0.00;0.62;0.00;0.00;0.62;2.33;1.13;;;26.90;25.10;;;;;;2248036;61;20364;-56
2022/07/05 09:37:01;0.00;0.00;0.62;0.00;0.00;0.62;2.53;1.30;;;26.90;25.00;;;;;;2246860;61;20399;-55
2022/07/05 09:39:46;0.00;0.00;0.62;0.00;0.00;0.62;2.83;1.40;;;26.90;25.00;;;;;;2248409;61;20443;-58
2022/07/05 09:42:32;0.00;0.00;0.62;0.00;0.00;0.62;3.27;1.30;;;27.00;24.80;;;;;;2253617;61;20373;-52
2022/07/05 09:45:26;0.00;0.00;0.62;0.00;0.00;0.62;1.77;1.10;;;27.00;24.70;;;;;;2255037;61;20369;-56
2022/07/05 09:48:11;0.00;0.00;0.62;0.00;0.00;0.62;2.80;1.20;;;27.00;24.70;;;;;;2255580;61;20393;-56
2022/07/05 09:51:09;0.00;0.00;0.62;0.00;0.00;0.62;2.03;1.20;;;27.00;24.80;;;;;;2255025;61;20537;-56
2022/07/05 09:53:58;0.00;0.00;0.62;0.00;0.00;0.62;2.83;1.30;;;27.00;24.70;;;;;;2255913;61;20406;-54
2022/07/05 09:56:47;0.00;0.00;0.62;0.00;0.00;0.62;3.63;1.30;;;27.00;24.60;;;;;;2255944;61;20378;-54
2022/07/05 09:59:34;0.00;0.00;0.62;0.00;0.00;0.62;5.23;1.70;;;27.00;24.70;;;;;;2255042;61;20473;-56
2022/07/05 10:02:35;0.00;0.00;0.62;0.00;0.00;0.62;2.30;1.47;;;27.00;24.50;;;;;;2256442;61;20370;-56
2022/07/05 10:05:22;0.00;0.00;0.62;0.00;0.00;0.62;2.00;1.50;;;27.00;24.50;;;;;;2255529;61;20366;-52
2022/07/05 10:08:07;0.00;0.00;0.62;0.00;0.00;0.62;1.43;1.10;;;27.00;24.40;;;;;;2255697;61;20444;-54
2022/07/05 10:10:52;0.00;0.00;0.62;0.00;0.00;0.62;2.17;1.30;;;27.00;24.20;;;;;;2256106;61;20378;-57
2022/07/05 10:13:39;0.00;0.00;0.62;0.00;0.00;0.62;2.10;1.23;;;27.00;24.10;;;;;;2254907;61;20370;-52
2022/07/05 10:16:25;0.00;0.00;0.62;0.00;0.00;0.62;2.30;1.23;;;27.00;23.90;;;;;;2256299;61;20930;-56
2022/07/05 10:19:17;0.00;0.00;0.62;0.00;0.00;0.62;1.50;1.00;;;27.00;24.00;;;;;;2255847;61;20377;-61
2022/07/05 10:22:04;0.00;0.00;0.62;0.00;0.00;0.62;1.90;1.20;;;27.00;24.10;;;;;;2255628;61;20365;-57
2022/07/05 10:24:51;0.00;0.00;0.62;0.00;0.00;0.62;1.97;1.50;;;27.00;24.20;;;;;;2256111;61;20370;-52
2022/07/05 10:27:37;0.00;0.00;0.62;0.00;0.00;0.62;2.60;1.20;;;27.00;24.10;;;;;;2255797;61;20450;-58
2022/07/05 10:30:24;0.00;0.00;0.62;0.00;0.00;0.62;1.70;1.20;;;27.00;24.00;;;;;;2255279;61;20390;-54
2022/07/05 10:33:11;0.00;0.00;0.62;0.00;0.00;0.62;1.93;1.10;;;27.00;24.10;;;;;;2256099;61;20366;-53
2022/07/05 10:35:56;0.00;0.00;0.62;0.00;0.00;0.62;1.80;1.20;;;27.00;24.20;;;;;;2254759;61;20930;-56
2022/07/05 10:38:45;0.00;0.00;0.62;0.00;0.00;0.62;2.17;1.20;;;27.00;24.10;;;;;;2523550;53;20366;-53
2022/07/05 10:41:31;0.00;0.00;0.62;0.00;0.00;0.62;2.40;1.33;;;27.00;23.90;;;;;;2251896;61;20362;-58
2022/07/05 10:44:29;0.00;0.00;0.62;0.00;0.00;0.62;1.90;1.03;;;27.10;24.00;;;;;;2250783;61;20382;-53
2022/07/05 10:47:14;0.00;0.00;0.62;0.00;0.00;0.62;2.70;1.20;;;27.10;24.00;;;;;;2252002;61;20383;-56
2022/07/05 10:50:06;0.00;0.00;0.62;0.00;0.00;0.62;2.17;1.37;;;27.10;23.80;;;;;;2248407;61;20398;-49
2022/07/05 10:53:02;0.00;0.00;0.62;0.00;0.00;0.62;1.60;1.10;;;27.10;23.80;;;;;;2251959;61;20367;-52
2022/07/05 10:55:55;0.00;0.00;0.62;0.00;0.00;0.62;1.93;0.97;;;27.10;23.80;;;;;;2251730;61;20475;-54
2022/07/05 10:58:41;0.00;0.00;0.62;0.00;0.00;0.62;1.70;0.90;;;27.10;23.70;;;;;;2251046;61;20374;-57